createdAt,value
2018-07-15T00:01:42.880Z,95550.91
2018-07-15T00:04:11.583Z,95550.32
2018-07-15T00:06:40.090Z,95544.77
2018-07-15T00:09:08.628Z,95550.51
2018-07-15T00:11:37.168Z,95543.73
2018-07-15T00:14:06.692Z,95550.53
2018-07-15T00:16:35.264Z,95546.98
2018-07-15T00:19:03.800Z,95545.92
2018-07-15T00:21:32.525Z,95549.32
2018-07-15T00:24:01.224Z,95544.11
2018-07-15T00:26:29.765Z,95544.50
2018-07-15T00:28:58.364Z,95541.84
2018-07-15T00:31:26.907Z,95542.59
2018-07-15T00:33:55.549Z,95541.24
2018-07-15T00:36:25.119Z,95543.34
2018-07-15T00:38:53.654Z,95542.94
2018-07-15T00:41:22.184Z,95544.72
2018-07-15T00:43:51.061Z,95537.60
2018-07-15T00:46:19.606Z,95542.28
2018-07-15T00:48:49.068Z,95548.42
2018-07-15T00:51:17.617Z,95545.28
2018-07-15T00:53:47.073Z,95542.19
2018-07-15T00:56:15.693Z,95551.50
2018-07-15T00:58:44.244Z,95552.20
2018-07-15T01:01:12.777Z,95553.30
2018-07-15T01:03:42.298Z,95545.39
2018-07-15T01:06:10.840Z,95545.62
2018-07-15T01:08:39.359Z,95544.91
2018-07-15T01:11:07.900Z,95541.95
2018-07-15T01:13:36.439Z,95543.50
2018-07-15T01:16:06.003Z,95545.80
2018-07-15T01:18:35.484Z,95543.02
2018-07-15T01:21:06.038Z,95549.65
2018-07-15T01:23:36.569Z,95547.73
2018-07-15T01:26:05.096Z,95546.45
2018-07-15T01:28:35.581Z,95543.34
2018-07-15T01:31:04.126Z,95544.52
2018-07-15T01:33:32.661Z,95542.84
2018-07-15T01:36:02.174Z,95543.00
2018-07-15T01:38:30.710Z,95543.92
2018-07-15T01:40:59.264Z,95549.47
2018-07-15T01:43:27.812Z,95547.05
2018-07-15T01:45:56.344Z,95543.00
2018-07-15T01:48:25.073Z,95540.51
2018-07-15T01:50:53.640Z,95539.22
2018-07-15T01:53:22.161Z,95538.30
2018-07-15T01:55:50.704Z,95529.64
2018-07-15T01:58:23.675Z,95529.27
2018-07-15T02:00:52.200Z,95524.61
2018-07-15T02:03:21.688Z,95522.97
2018-07-15T02:05:52.186Z,95520.59
2018-07-15T02:08:20.715Z,95513.95
2018-07-15T02:14:10.858Z,95512.95
2018-07-15T02:16:39.930Z,95514.02
2018-07-15T02:19:09.234Z,95515.31
2018-07-15T02:21:38.344Z,95514.64
2018-07-15T02:24:10.628Z,95513.41
2018-07-15T02:29:15.070Z,95512.36
2018-07-15T02:31:44.110Z,95514.75
2018-07-15T02:34:13.198Z,95505.68
2018-07-15T02:39:18.392Z,95509.41
2018-07-15T02:41:47.447Z,95509.42
2018-07-15T02:44:17.486Z,95502.95
2018-07-15T02:46:51.562Z,95502.42
2018-07-15T02:49:22.617Z,95498.27
2018-07-15T02:51:51.676Z,95506.91
2018-07-15T02:54:20.745Z,95505.31
2018-07-15T02:56:49.825Z,95511.30
2018-07-15T02:59:19.835Z,95514.80
2018-07-15T03:01:52.088Z,95519.87
2018-07-15T03:06:56.866Z,95518.05
2018-07-15T03:09:27.018Z,95523.41
2018-07-15T03:11:56.059Z,95527.47
2018-07-15T03:17:00.839Z,95525.47
2018-07-15T03:19:29.920Z,95529.31
2018-07-15T03:21:58.989Z,95532.54
2018-07-15T03:24:28.073Z,95532.91
2018-07-15T03:26:57.125Z,95529.16
2018-07-15T03:29:26.201Z,95530.09
2018-07-15T03:34:30.973Z,95533.14
2018-07-15T03:37:00.066Z,95536.84
2018-07-15T03:39:30.085Z,95539.39
2018-07-15T03:41:59.155Z,95537.91
2018-07-15T03:44:28.225Z,95536.61
2018-07-15T03:46:57.481Z,95539.69
2018-07-15T03:49:26.582Z,95535.44
2018-07-15T03:51:55.645Z,95535.10
2018-07-15T03:54:24.722Z,95537.58
2018-07-15T03:56:53.785Z,95537.57
2018-07-15T03:59:23.072Z,95534.61
2018-07-15T04:01:52.162Z,95535.97
2018-07-15T04:04:21.226Z,95536.42
2018-07-15T04:06:50.498Z,95534.73
2018-07-15T04:11:56.171Z,95532.82
2018-07-15T04:14:33.653Z,95532.70
2018-07-15T04:17:02.722Z,95535.03
2018-07-15T04:19:31.789Z,95534.28
2018-07-15T04:22:01.011Z,95531.44
2018-07-15T04:24:30.080Z,95537.35
2018-07-15T04:27:00.187Z,95537.00
2018-07-15T04:29:30.194Z,95532.97
2018-07-15T04:31:59.258Z,95531.74
2018-07-15T04:34:28.650Z,95532.60
2018-07-15T04:39:35.446Z,95537.84
2018-07-15T04:42:04.507Z,95531.94
2018-07-15T04:44:33.606Z,95531.38
2018-07-15T04:47:02.713Z,95530.11
2018-07-15T04:49:31.865Z,95525.69
2018-07-15T04:52:01.389Z,95523.19
2018-07-15T04:54:30.437Z,95534.52
2018-07-15T04:56:59.517Z,95527.48
2018-07-15T04:59:28.879Z,95527.87
2018-07-15T05:02:01.202Z,95528.64
2018-07-15T05:04:30.202Z,95530.66
2018-07-15T05:06:59.278Z,95533.98
2018-07-15T05:09:29.290Z,95538.08
2018-07-15T05:14:35.101Z,95540.08
2018-07-15T05:17:04.170Z,95536.61
2018-07-15T05:19:34.186Z,95533.73
2018-07-15T05:22:03.249Z,95536.57
2018-07-15T05:24:32.313Z,95534.69
2018-07-15T05:32:12.924Z,95542.09
2018-07-15T05:37:17.930Z,95549.84
2018-07-15T05:44:58.159Z,95554.50
2018-07-15T05:50:05.574Z,95557.86
2018-07-15T05:52:34.657Z,95550.83
2018-07-15T05:55:06.183Z,95559.83
2018-07-15T06:02:48.797Z,95561.81
2018-07-15T06:05:17.879Z,95562.75
2018-07-15T06:07:47.122Z,95570.70
2018-07-15T06:10:16.215Z,95562.94
2018-07-15T06:12:45.260Z,95558.37
2018-07-15T06:17:53.685Z,95564.25
2018-07-15T06:20:22.779Z,95566.05
2018-07-15T06:22:52.333Z,95573.95
2018-07-15T06:25:21.516Z,95573.02
2018-07-15T06:30:35.600Z,95572.58
2018-07-15T06:33:06.195Z,95572.87
2018-07-15T06:35:40.228Z,95567.18
2018-07-15T06:38:09.603Z,95566.14
2018-07-15T06:40:43.475Z,95567.56
2018-07-15T06:43:15.799Z,95567.15
2018-07-15T06:45:47.968Z,95566.13
2018-07-15T06:48:19.814Z,95565.75
2018-07-15T06:50:50.841Z,95568.74
2018-07-15T06:53:23.803Z,95569.30
2018-07-15T06:55:57.987Z,95566.42
2018-07-15T07:01:03.791Z,95567.98
2018-07-15T07:03:35.572Z,95565.64
2018-07-15T07:06:04.614Z,95565.93
2018-07-15T07:11:11.697Z,95565.02
2018-07-15T07:13:42.770Z,95569.68
2018-07-15T07:16:12.184Z,95570.83
2018-07-15T07:21:17.428Z,95564.43
2018-07-15T07:23:46.494Z,95562.78
2018-07-15T07:28:51.487Z,95562.28
2018-07-15T07:31:23.068Z,95564.69
2018-07-15T07:33:54.946Z,95562.73
2018-07-15T07:36:25.916Z,95565.50
2018-07-15T07:38:58.930Z,95565.86
2018-07-15T07:41:33.702Z,95560.88
2018-07-15T07:44:06.811Z,95563.55
2018-07-15T07:46:40.547Z,95566.65
2018-07-15T07:49:13.387Z,95563.77
2018-07-15T07:51:46.224Z,95562.80
2018-07-15T07:54:18.338Z,95566.91
2018-07-15T07:56:49.786Z,95562.72
2018-07-15T07:59:22.268Z,95560.70
2018-07-15T08:01:53.440Z,95559.54
2018-07-15T08:04:26.321Z,95558.37
2018-07-15T08:07:00.995Z,95559.26
2018-07-15T08:12:10.147Z,95554.56
2018-07-15T08:14:43.912Z,95556.73
2018-07-15T08:17:17.480Z,95554.58
2018-07-15T08:19:46.549Z,95558.45
2018-07-15T08:24:55.932Z,95553.12
2018-07-15T08:32:41.281Z,95547.80
2018-07-15T08:35:13.482Z,95541.39
2018-07-15T08:37:46.589Z,95535.77
2018-07-15T08:40:21.143Z,95534.37
2018-07-15T08:42:53.116Z,95534.30
2018-07-15T08:45:23.523Z,95538.22
2018-07-15T08:47:57.078Z,95535.68
2018-07-15T08:50:29.068Z,95533.85
2018-07-15T08:53:01.106Z,95536.77
2018-07-15T08:55:33.104Z,95537.70
2018-07-15T08:58:02.196Z,95539.58
2018-07-15T09:00:31.243Z,95537.73
2018-07-15T09:03:00.686Z,95537.27
2018-07-15T09:05:29.765Z,95538.86
2018-07-15T09:07:58.802Z,95534.87
2018-07-15T09:10:28.126Z,95533.06
2018-07-15T09:12:57.180Z,95530.78
2018-07-15T09:15:26.235Z,95531.09
2018-07-15T09:17:55.545Z,95527.98
2018-07-15T09:20:24.773Z,95526.11
2018-07-15T09:22:55.827Z,95522.58
2018-07-15T09:28:00.891Z,95525.64
2018-07-15T09:30:30.066Z,95521.23
2018-07-15T09:32:59.119Z,95514.15
2018-07-15T09:35:28.653Z,95512.56
2018-07-15T09:37:57.703Z,95511.67
2018-07-15T09:40:26.772Z,95504.73
2018-07-15T09:42:57.050Z,95506.84
2018-07-15T09:45:26.141Z,95502.93
2018-07-15T09:47:55.198Z,95500.48
2018-07-15T09:53:00.123Z,95502.02
2018-07-15T09:55:29.154Z,95502.34
2018-07-15T09:57:58.458Z,95501.25
2018-07-15T10:00:27.516Z,95497.76
2018-07-15T10:02:56.574Z,95490.63
2018-07-15T10:05:26.013Z,95496.40
2018-07-15T10:07:55.086Z,95495.81
2018-07-15T10:10:26.176Z,95489.89
2018-07-15T10:12:55.188Z,95493.05
2018-07-15T10:15:24.526Z,95495.91
2018-07-15T10:17:53.588Z,95486.67
2018-07-15T10:22:58.519Z,95484.89
2018-07-15T10:25:27.585Z,95478.86
2018-07-15T10:27:56.637Z,95473.11
2018-07-15T10:30:26.078Z,95473.13
2018-07-15T10:32:55.130Z,95474.66
2018-07-15T10:38:00.067Z,95452.92
2018-07-15T10:40:29.186Z,95445.02
2018-07-15T10:42:58.392Z,95451.32
2018-07-15T10:45:27.466Z,95446.03
2018-07-15T10:47:56.503Z,95447.66
2018-07-15T10:50:25.560Z,95446.53
2018-07-15T10:52:55.673Z,95450.16
2018-07-15T10:55:24.701Z,95447.13
2018-07-15T10:57:53.787Z,95434.78
2018-07-15T11:00:23.349Z,95429.27
2018-07-15T11:02:52.397Z,95425.59
2018-07-15T11:05:21.461Z,95412.09
2018-07-15T11:07:50.782Z,95406.11
2018-07-15T11:10:20.087Z,95403.88
2018-07-15T11:12:49.152Z,95409.81
2018-07-15T11:15:18.204Z,95406.94
2018-07-15T11:20:22.941Z,95408.45
2018-07-15T11:22:52.102Z,95410.95
2018-07-15T11:25:21.138Z,95406.80
2018-07-15T11:27:51.130Z,95398.62
2018-07-15T11:30:20.509Z,95393.11
2018-07-15T11:32:49.704Z,95388.98
2018-07-15T11:35:18.767Z,95384.30
2018-07-15T11:37:47.809Z,95381.52
2018-07-15T11:40:16.868Z,95379.42
2018-07-15T11:42:46.864Z,95380.05
2018-07-15T11:45:15.909Z,95372.70
2018-07-15T11:47:45.328Z,95372.11
2018-07-15T11:50:14.386Z,95372.86
2018-07-15T11:52:43.444Z,95369.60
2018-07-15T11:55:12.766Z,95364.63
2018-07-15T11:57:43.024Z,95369.83
2018-07-15T12:00:12.104Z,95367.29
2018-07-15T12:02:41.152Z,95364.91
2018-07-15T12:05:10.561Z,95356.13
2018-07-15T12:10:17.524Z,95352.27
2018-07-15T12:15:22.421Z,95348.85
2018-07-15T12:17:51.676Z,95348.25
2018-07-15T12:20:20.770Z,95350.17
2018-07-15T12:22:49.785Z,95346.97
2018-07-15T12:25:19.173Z,95355.18
2018-07-15T12:30:24.137Z,95351.12
2018-07-15T12:32:53.220Z,95352.89
2018-07-15T12:35:22.275Z,95349.41
2018-07-15T12:37:51.337Z,95349.16
2018-07-15T12:40:20.868Z,95343.03
2018-07-15T12:42:49.911Z,95346.34
2018-07-15T12:45:18.964Z,95344.93
2018-07-15T12:47:48.486Z,95331.99
2018-07-15T12:50:17.537Z,95341.08
2018-07-15T12:52:46.642Z,95336.89
2018-07-15T12:57:51.500Z,95330.59
2018-07-15T13:00:20.909Z,95334.01
2018-07-15T13:02:50.277Z,95330.55
2018-07-15T13:05:19.404Z,95323.14
2018-07-15T13:07:48.466Z,95319.40
2018-07-15T13:10:18.165Z,95314.39
2018-07-15T13:15:24.249Z,95312.84
2018-07-15T13:17:53.528Z,95316.54
2018-07-15T13:20:22.602Z,95321.34
2018-07-15T13:22:52.636Z,95321.48
2018-07-15T13:25:22.650Z,95322.53
2018-07-15T13:27:53.923Z,95330.43
2018-07-15T13:30:22.989Z,95333.16
2018-07-15T13:32:52.043Z,95336.77
2018-07-15T13:35:21.123Z,95338.38
2018-07-15T13:37:50.194Z,95342.28
2018-07-15T13:40:19.245Z,95345.36
2018-07-15T13:42:48.305Z,95346.70
2018-07-15T13:45:17.800Z,95346.24
2018-07-15T13:47:47.810Z,95349.05
2018-07-15T13:50:16.926Z,95344.70
2018-07-15T13:52:45.975Z,95348.08
2018-07-15T13:55:19.703Z,95354.71
2018-07-15T13:57:51.875Z,95355.74
2018-07-15T14:00:20.946Z,95354.80
2018-07-15T14:02:50.382Z,95369.88
2018-07-15T14:05:23.173Z,95377.52
2018-07-15T14:07:52.921Z,95375.88
2018-07-15T14:10:21.965Z,95375.98
2018-07-15T14:12:53.023Z,95367.60
2018-07-15T14:17:57.912Z,95362.50
2018-07-15T14:23:06.824Z,95366.09
2018-07-15T14:25:38.007Z,95381.80
2018-07-15T14:28:07.757Z,95397.63
2018-07-15T14:33:22.373Z,95411.02
2018-07-15T14:35:53.565Z,95418.08
2018-07-15T14:38:24.273Z,95416.66
2018-07-15T14:43:38.461Z,95419.20
2018-07-15T14:48:50.152Z,95441.20
2018-07-15T14:51:25.842Z,95444.05
2018-07-15T14:54:00.395Z,95447.44
2018-07-15T14:56:30.952Z,95452.17
2018-07-15T15:01:35.834Z,95464.30
2018-07-15T15:04:05.084Z,95468.97
2018-07-15T15:06:34.123Z,95473.41
2018-07-15T15:09:03.191Z,95470.92
2018-07-15T15:11:32.361Z,95475.73
2018-07-15T15:14:02.548Z,95467.95
2018-07-15T15:16:31.609Z,95460.90
2018-07-15T15:24:13.061Z,95460.77
2018-07-15T15:26:43.140Z,95455.83
2018-07-15T15:29:14.488Z,95454.09
2018-07-15T15:31:43.540Z,95453.38
2018-07-15T15:34:13.593Z,95441.04
2018-07-15T15:36:42.642Z,95445.91
2018-07-15T15:39:12.073Z,95437.09
2018-07-15T15:41:41.122Z,95437.99
2018-07-15T15:44:10.189Z,95432.59
2018-07-15T15:51:54.812Z,95412.42
2018-07-15T15:54:25.129Z,95405.13
2018-07-15T15:59:31.083Z,95395.18
2018-07-15T16:02:00.672Z,95389.56
2018-07-15T16:07:07.996Z,95378.68
2018-07-15T16:09:38.947Z,95377.38
2018-07-15T16:12:09.359Z,95368.42
2018-07-15T16:17:14.202Z,95378.66
2018-07-15T16:19:44.273Z,95374.49
2018-07-15T16:22:13.330Z,95381.58
2018-07-15T16:27:20.217Z,95380.14
2018-07-15T16:29:50.285Z,95384.67
2018-07-15T16:32:20.327Z,95385.20
2018-07-15T16:34:50.142Z,95399.16
2018-07-15T16:39:55.935Z,95394.34
2018-07-15T16:42:25.147Z,95393.32
2018-07-15T16:44:54.247Z,95388.89
2018-07-15T16:47:23.298Z,95384.16
2018-07-15T16:52:28.209Z,95384.52
2018-07-15T16:54:57.259Z,95374.94
2018-07-15T16:57:27.511Z,95376.55
2018-07-15T16:59:56.595Z,95380.67
2018-07-15T17:05:00.815Z,95379.55
2018-07-15T17:07:31.854Z,95377.66
2018-07-15T17:10:00.922Z,95373.25
2018-07-15T17:12:31.059Z,95375.31
2018-07-15T17:15:00.402Z,95372.78
2018-07-15T17:20:05.454Z,95373.20
2018-07-15T17:25:10.386Z,95366.59
2018-07-15T17:27:39.657Z,95365.63
2018-07-15T17:30:08.714Z,95363.97
2018-07-15T17:37:52.562Z,95362.68
2018-07-15T17:42:57.356Z,95368.46
2018-07-15T17:45:26.444Z,95373.69
2018-07-15T17:50:31.297Z,95376.19
2018-07-15T17:53:00.383Z,95382.35
2018-07-15T17:55:29.753Z,95391.08
2018-07-15T17:57:58.806Z,95382.14
2018-07-15T18:00:27.879Z,95371.30
2018-07-15T18:02:57.480Z,95378.61
2018-07-15T18:08:02.261Z,95380.05
2018-07-15T18:15:44.279Z,95389.29
2018-07-15T18:18:14.412Z,95392.01
2018-07-15T18:20:43.473Z,95387.88
2018-07-15T18:23:12.507Z,95388.73
2018-07-15T18:25:42.618Z,95390.14
2018-07-15T18:28:11.682Z,95389.41
2018-07-15T18:30:40.737Z,95388.66
2018-07-15T18:33:10.821Z,95391.58
2018-07-15T18:38:20.172Z,95406.69
2018-07-15T18:40:49.209Z,95410.45
2018-07-15T18:45:54.291Z,95423.92
2018-07-15T18:48:23.359Z,95431.73
2018-07-15T18:50:52.399Z,95433.40
2018-07-15T18:53:21.508Z,95438.30
2018-07-15T18:55:50.799Z,95446.66
2018-07-15T18:58:19.855Z,95454.88
2018-07-15T19:00:49.033Z,95460.23
2018-07-15T19:03:18.077Z,95462.21
2018-07-15T19:08:24.938Z,95467.45
2018-07-15T19:10:53.999Z,95467.39
2018-07-15T19:13:23.034Z,95464.83
2018-07-15T19:15:54.077Z,95459.69
2018-07-15T19:20:58.853Z,95455.05
2018-07-15T19:23:27.910Z,95459.31
2018-07-15T19:25:56.968Z,95458.98
2018-07-15T19:31:01.820Z,95459.05
2018-07-15T19:33:31.813Z,95453.88
2018-07-15T19:36:00.859Z,95449.59
2018-07-15T19:38:29.911Z,95446.58
2018-07-15T19:40:58.977Z,95440.58
2018-07-15T19:43:28.049Z,95429.55
2018-07-15T19:45:57.099Z,95425.97
2018-07-15T19:48:27.124Z,95430.42
2018-07-15T19:50:56.169Z,95429.38
2018-07-15T19:53:25.225Z,95428.89
2018-07-15T19:55:54.287Z,95423.86
2018-07-15T19:58:23.346Z,95421.70
2018-07-15T20:00:52.510Z,95422.66
2018-07-15T20:03:22.423Z,95422.77
2018-07-15T20:08:27.295Z,95416.92
2018-07-15T20:10:58.363Z,95413.48
2018-07-15T20:13:27.430Z,95415.38
2018-07-15T20:18:32.211Z,95412.31
2018-07-15T20:21:01.359Z,95410.30
2018-07-15T20:23:30.327Z,95405.03
2018-07-15T20:25:59.418Z,95401.72
2018-07-15T20:28:29.401Z,95408.06
2018-07-15T20:30:59.418Z,95415.91
2018-07-15T20:33:28.477Z,95413.74
2018-07-15T20:35:57.550Z,95414.72
2018-07-15T20:43:38.155Z,95417.51
2018-07-15T20:46:07.189Z,95417.77
2018-07-15T20:48:36.400Z,95414.25
2018-07-15T20:51:05.458Z,95419.97
2018-07-15T20:56:10.325Z,95419.84
2018-07-15T20:58:39.367Z,95426.05
2018-07-15T21:03:44.143Z,95408.09
2018-07-15T21:11:24.738Z,95401.25
2018-07-15T21:13:53.791Z,95403.66
2018-07-15T21:16:24.749Z,95404.66
2018-07-15T21:18:54.770Z,95402.53
2018-07-15T21:21:27.453Z,95404.70
2018-07-15T21:23:56.514Z,95402.48
2018-07-15T21:26:25.574Z,95397.47
2018-07-15T21:28:54.627Z,95392.57
2018-07-15T21:31:23.728Z,95388.10
2018-07-15T21:33:52.759Z,95387.18
2018-07-15T21:36:21.814Z,95385.06
2018-07-15T21:38:50.870Z,95379.45
2018-07-15T21:41:19.932Z,95378.32
2018-07-15T21:43:49.003Z,95384.04
2018-07-15T21:46:18.053Z,95388.67
2018-07-15T21:48:47.108Z,95389.34
2018-07-15T21:51:16.180Z,95392.00
2018-07-15T21:53:46.202Z,95397.63
2018-07-15T21:58:51.050Z,95406.25
2018-07-15T22:01:20.128Z,95403.91
2018-07-15T22:06:26.888Z,95416.01
2018-07-15T22:12:19.667Z,95411.45
2018-07-15T22:17:24.430Z,95409.74
2018-07-15T22:19:54.494Z,95407.16
2018-07-15T22:22:23.546Z,95409.03
2018-07-15T22:24:54.772Z,95408.67
2018-07-15T22:27:24.842Z,95413.95
2018-07-15T22:29:55.843Z,95416.62
2018-07-15T22:32:24.905Z,95419.48
2018-07-15T22:34:53.953Z,95424.88
2018-07-15T22:37:23.016Z,95429.39
2018-07-15T22:39:52.085Z,95435.87
2018-07-15T22:42:22.218Z,95441.25
2018-07-15T22:44:51.261Z,95443.35
2018-07-15T22:49:56.033Z,95432.16
2018-07-15T22:52:27.067Z,95433.53
2018-07-15T22:54:56.230Z,95431.64
2018-07-15T22:57:25.289Z,95430.53
2018-07-15T22:59:54.358Z,95433.89
2018-07-15T23:02:25.398Z,95436.92
2018-07-15T23:07:30.188Z,95448.39
2018-07-15T23:09:59.253Z,95448.45
2018-07-15T23:12:28.322Z,95446.50
2018-07-15T23:14:57.397Z,95445.53
2018-07-15T23:20:02.234Z,95444.39
2018-07-15T23:22:31.303Z,95444.84
2018-07-15T23:25:00.354Z,95442.75
2018-07-15T23:27:29.628Z,95449.80
2018-07-15T23:29:58.641Z,95450.61
2018-07-15T23:32:27.703Z,95450.83
2018-07-15T23:37:32.487Z,95439.98
2018-07-15T23:40:01.555Z,95441.22
2018-07-15T23:45:06.334Z,95439.58
2018-07-15T23:47:35.397Z,95442.13
2018-07-15T23:52:40.278Z,95445.36
2018-07-15T23:55:09.343Z,95439.86
